Time;durP1;ratioP1;P1;durP2;ratioP2;P2;SDS_P1;SDS_P2;PMS_P1;PMS_P2;Temp;Humidity;BMP_temperature;BMP_pressure;BME280_temperature;BME280_humidity;BME280_pressure;Samples;Min_cycle;Max_cycle;Signal;HPM_P1;HPM_P2
2022/04/10 00:00:49;;;;;;;5.55;2.92;;;;;;;5.68;62.06;96726.03;4922787;29;20147;-82
2022/04/10 00:03:17;;;;;;;6.18;2.65;;;;;;;5.65;61.37;96724.56;4922411;29;20475;-82
2022/04/10 00:05:45;;;;;;;3.70;2.90;;;;;;;5.61;61.44;96735.38;4923574;29;20486;-82
2022/04/10 00:08:13;;;;;;;4.88;3.08;;;;;;;5.52;61.01;96734.47;4923208;29;20422;-82
2022/04/10 00:10:40;;;;;;;6.93;2.85;;;;;;;5.49;61.37;96737.38;4928015;29;20062;-82
2022/04/10 00:13:09;;;;;;;3.45;2.35;;;;;;;5.49;62.24;96742.53;4923265;29;20119;-82
2022/04/10 00:15:38;;;;;;;4.25;3.13;;;;;;;5.53;63.85;96736.09;4923833;29;20056;-82
2022/04/10 00:18:07;;;;;;;2.75;2.25;;;;;;;5.54;62.41;96743.72;4928667;29;20052;-82
2022/04/10 00:20:35;;;;;;;3.20;2.00;;;;;;;5.56;62.09;96735.81;4937376;29;20068;-82
2022/04/10 00:23:04;;;;;;;4.30;2.42;;;;;;;5.56;63.09;96730.63;4937212;29;20115;-82
2022/04/10 00:25:32;;;;;;;4.32;2.10;;;;;;;5.60;64.83;96736.31;4934797;29;20507;-82
2022/04/10 00:28:00;;;;;;;3.38;2.10;;;;;;;5.63;65.29;96730.84;4929889;29;20075;-82
2022/04/10 00:30:28;;;;;;;2.28;1.77;;;;;;;5.63;63.40;96725.69;4926018;29;20107;-82
2022/04/10 00:32:57;;;;;;;3.33;1.92;;;;;;;5.62;63.67;96735.22;4924573;29;20115;-82
2022/04/10 00:35:25;;;;;;;4.32;1.80;;;;;;;5.61;62.73;96732.78;4924106;29;20084;-82
2022/04/10 00:37:53;;;;;;;5.43;2.38;;;;;;;5.59;62.41;96730.34;4922787;29;20135;-82
2022/04/10 00:40:21;;;;;;;2.67;1.67;;;;;;;5.57;62.04;96732.25;4923650;29;20131;-82
2022/04/10 00:42:51;;;;;;;4.53;1.77;;;;;;;5.55;63.94;96734.16;4924935;29;20143;-82
2022/04/10 00:45:20;;;;;;;3.80;2.00;;;;;;;5.55;63.44;96737.59;4923856;29;20087;-82
2022/04/10 00:47:49;;;;;;;3.15;2.00;;;;;;;5.55;63.32;96734.16;4923322;29;20052;-82
2022/04/10 00:50:19;;;;;;;7.13;2.38;;;;;;;5.52;64.75;96724.94;4922917;29;20063;-82
2022/04/10 00:52:49;;;;;;;3.38;1.80;;;;;;;5.51;63.51;96730.25;4923915;29;20241;-82
2022/04/10 00:55:18;;;;;;;5.43;2.03;;;;;;;5.52;63.89;96734.47;4924792;29;20087;-82
2022/04/10 00:57:47;;;;;;;3.15;2.15;;;;;;;5.52;64.97;96732.69;4927200;29;20083;-82
2022/04/10 01:00:17;;;;;;;2.28;1.98;;;;;;;5.47;63.56;96734.09;4927442;29;20062;-82
2022/04/10 01:02:45;;;;;;;2.13;1.77;;;;;;;5.46;64.68;96737.63;4927482;29;20056;-82
2022/04/10 01:05:13;;;;;;;4.35;2.33;;;;;;;5.49;66.01;96738.16;4927316;29;20079;-82
2022/04/10 01:07:42;;;;;;;2.88;1.98;;;;;;;5.47;63.98;96741.88;4926409;29;20056;-82
2022/04/10 01:10:10;;;;;;;3.63;2.13;;;;;;;5.46;64.92;96741.03;4931425;29;20075;-82
2022/04/10 01:12:38;;;;;;;4.22;2.00;;;;;;;5.46;64.52;96741.03;4927921;29;20135;-82
2022/04/10 01:15:06;;;;;;;5.30;2.70;;;;;;;5.43;64.47;96746.50;4927778;29;20052;-82
2022/04/10 01:17:35;;;;;;;4.10;2.38;;;;;;;5.45;64.74;96743.78;4926544;29;20080;-82
2022/04/10 01:20:04;;;;;;;2.75;2.10;;;;;;;5.47;65.63;96741.88;4931840;29;20048;-82
2022/04/10 01:22:35;;;;;;;4.30;2.03;;;;;;;5.49;66.16;96742.53;4929570;29;20058;-82
2022/04/10 01:25:05;;;;;;;4.93;2.20;;;;;;;5.48;64.18;96743.47;4926998;29;20079;-82
2022/04/10 01:27:37;;;;;;;3.08;2.15;;;;;;;5.48;65.70;96743.47;4927397;29;20143;-82
2022/04/10 01:30:06;;;;;;;3.03;1.90;;;;;;;5.47;64.31;96750.44;4931739;29;20111;-82
2022/04/10 01:32:34;;;;;;;3.33;2.17;;;;;;;5.47;63.68;96749.63;4926885;29;20123;-82
2022/04/10 01:35:04;;;;;;;3.33;2.13;;;;;;;5.44;64.09;96758.47;4927038;29;20494;-82
2022/04/10 01:37:35;;;;;;;3.47;2.30;;;;;;;5.42;63.26;96755.22;4926594;29;20123;-82
2022/04/10 01:40:04;;;;;;;3.55;2.35;;;;;;;5.42;63.88;96749.22;4927047;29;20048;-82
2022/04/10 01:42:32;;;;;;;3.92;2.22;;;;;;;5.43;63.40;96756.06;4927224;29;20124;-82
2022/04/10 01:44:59;;;;;;;4.40;2.67;;;;;;;5.45;64.39;96760.13;4926800;29;20055;-82
2022/04/10 01:47:27;;;;;;;5.78;2.67;;;;;;;5.46;63.50;96755.75;4926429;29;20426;-82
2022/04/10 01:49:55;;;;;;;4.03;2.42;;;;;;;5.45;63.46;96754.13;4927962;29;20052;-82
2022/04/10 01:52:23;;;;;;;4.90;2.53;;;;;;;5.47;64.42;96759.97;4926833;29;20134;-82
2022/04/10 01:54:53;;;;;;;3.58;2.15;;;;;;;5.46;63.16;96756.56;4927621;29;20499;-82
2022/04/10 01:57:20;;;;;;;4.78;2.60;;;;;;;5.49;63.31;96764.03;4926555;29;20088;-82
2022/04/10 01:59:48;;;;;;;5.15;2.67;;;;;;;5.49;65.18;96766.63;4927044;29;20080;-82
2022/04/10 02:02:16;;;;;;;2.90;2.20;;;;;;;5.51;63.84;96764.72;4926400;29;20278;-82
2022/04/10 02:04:44;;;;;;;3.38;2.63;;;;;;;5.50;64.49;96765.66;4926352;29;20052;-82
2022/04/10 02:07:13;;;;;;;3.22;2.30;;;;;;;5.49;64.96;96769.22;4924465;29;20142;-82
2022/04/10 02:09:41;;;;;;;4.30;2.45;;;;;;;5.53;65.55;96770.56;4929161;29;20128;-82
2022/04/10 02:12:11;;;;;;;3.60;2.60;;;;;;;5.52;64.20;96760.34;4930022;29;20052;-82
2022/04/10 02:14:39;;;;;;;4.10;2.80;;;;;;;5.50;64.59;96762.25;4929910;29;20075;-82
2022/04/10 02:17:07;;;;;;;2.88;2.30;;;;;;;5.50;64.21;96762.25;4926156;29;20060;-82
2022/04/10 02:19:34;;;;;;;4.68;2.80;;;;;;;5.51;64.31;96769.06;4926076;29;20062;-82
2022/04/10 02:22:02;;;;;;;5.60;2.47;;;;;;;5.52;63.92;96771.50;4926880;29;20059;-82
2022/04/10 02:24:30;;;;;;;3.00;2.40;;;;;;;5.55;64.02;96754.88;4926110;29;20068;-82
2022/04/10 02:26:58;;;;;;;3.58;2.35;;;;;;;5.55;63.61;96766.06;4925071;29;20524;-82
2022/04/10 02:29:27;;;;;;;3.47;2.63;;;;;;;5.56;65.17;96770.25;4925337;29;20071;-82
2022/04/10 02:31:55;;;;;;;5.70;2.50;;;;;;;5.58;64.18;96777.88;4927030;29;20055;-82
2022/04/10 02:34:24;;;;;;;5.13;2.42;;;;;;;5.57;64.09;96773.66;4932643;29;20058;-82
2022/04/10 02:36:52;;;;;;;3.63;2.88;;;;;;;5.57;65.54;96773.66;4934462;29;20123;-82
2022/04/10 02:39:20;;;;;;;4.13;2.40;;;;;;;5.56;64.05;96766.88;4928971;29;20063;-82
2022/04/10 02:41:47;;;;;;;4.72;3.17;;;;;;;5.54;64.99;96773.94;4927117;29;20048;-82
2022/04/10 02:44:15;;;;;;;5.55;2.72;;;;;;;5.51;65.36;96769.88;4926825;29;20062;-82
2022/04/10 02:46:44;;;;;;;3.67;2.90;;;;;;;5.52;66.42;96770.69;4926091;29;20052;-82
2022/04/10 02:49:12;;;;;;;3.97;3.33;;;;;;;5.52;65.58;96771.50;4926641;29;20072;-82
2022/04/10 02:51:40;;;;;;;3.45;2.80;;;;;;;5.51;65.13;96769.06;4925269;29;20251;-82
2022/04/10 02:54:07;;;;;;;6.57;3.17;;;;;;;5.53;65.76;96767.13;4925576;29;20068;-82
2022/04/10 02:56:35;;;;;;;6.45;4.15;;;;;;;5.53;65.82;96772.31;4927119;29;20056;-82
2022/04/10 02:59:03;;;;;;;5.20;3.30;;;;;;;5.53;66.15;96761.97;4925786;29;20098;-82
2022/04/10 03:01:30;;;;;;;4.03;2.83;;;;;;;5.50;65.36;96767.44;4926342;29;20062;-82
2022/04/10 03:04:00;;;;;;;3.70;2.60;;;;;;;5.43;64.16;96766.41;4928699;29;20052;-82
2022/04/10 03:06:27;;;;;;;5.20;3.00;;;;;;;5.42;66.59;96769.94;4924975;29;20052;-82
2022/04/10 03:08:55;;;;;;;3.97;3.20;;;;;;;5.42;66.95;96762.97;4925907;29;20422;-82
2022/04/10 03:11:25;;;;;;;5.40;3.10;;;;;;;5.42;65.01;96767.34;4925987;29;20056;-82
2022/04/10 03:13:52;;;;;;;5.13;3.40;;;;;;;5.42;65.69;96767.34;4926003;29;20048;-82
2022/04/10 03:16:20;;;;;;;5.35;3.17;;;;;;;5.39;65.81;96762.47;4926769;29;20115;-82
2022/04/10 03:18:48;;;;;;;7.05;3.17;;;;;;;5.37;64.64;96770.38;4925480;29;20079;-82
2022/04/10 03:21:17;;;;;;;7.43;3.13;;;;;;;5.36;64.96;96777.31;4925303;29;20052;-82
2022/04/10 03:23:45;;;;;;;3.67;3.05;;;;;;;5.34;65.03;96776.66;4930907;29;20048;-82
2022/04/10 03:26:13;;;;;;;6.07;3.35;;;;;;;5.32;65.63;96793.28;4924482;29;20056;-82
2022/04/10 03:28:41;;;;;;;5.03;2.67;;;;;;;5.29;65.49;96785.78;4925272;29;20052;-82
2022/04/10 03:31:09;;;;;;;5.95;3.63;;;;;;;5.28;65.67;96784.97;4925909;29;20048;-82
2022/04/10 03:33:37;;;;;;;6.63;3.15;;;;;;;5.29;65.45;96785.78;4925906;29;20071;-82
2022/04/10 03:36:06;;;;;;;3.65;3.33;;;;;;;5.27;66.21;96792.88;4925048;29;20210;-82
2022/04/10 03:38:35;;;;;;;5.82;3.40;;;;;;;5.25;66.38;96800.00;4925619;29;20066;-82
2022/04/10 03:41:02;;;;;;;4.78;3.63;;;;;;;5.25;66.95;96792.22;4948761;23;20477;-81
2022/04/10 03:43:31;;;;;;;4.80;3.22;;;;;;;5.21;65.24;96801.22;4949529;29;20490;-81
2022/04/10 03:45:58;;;;;;;7.38;4.28;;;;;;;5.19;65.99;96800.56;4948598;29;20494;-81
2022/04/10 03:48:26;;;;;;;6.70;3.70;;;;;;;5.19;66.58;96796.19;4948724;29;20059;-80
2022/04/10 03:50:54;;;;;;;4.40;3.70;;;;;;;5.20;66.97;96804.75;4938809;29;20115;-80
2022/04/10 03:53:22;;;;;;;4.32;3.58;;;;;;;5.19;66.94;96801.38;4929803;29;20048;-80
2022/04/10 03:55:51;;;;;;;4.82;3.35;;;;;;;5.20;67.78;96812.50;4929152;29;20055;-80
2022/04/10 03:58:18;;;;;;;5.45;3.88;;;;;;;5.17;67.23;96811.03;4929352;29;20052;-81
2022/04/10 04:00:47;;;;;;;6.10;3.97;;;;;;;5.14;66.65;96813.91;4929093;29;20070;-81
2022/04/10 04:03:15;;;;;;;5.93;4.18;;;;;;;5.12;66.42;96821.00;4929094;29;20072;-80
2022/04/10 04:05:42;;;;;;;4.68;3.75;;;;;;;5.08;66.69;96819.66;4928645;29;20107;-80
2022/04/10 04:08:10;;;;;;;4.75;4.20;;;;;;;5.06;65.57;96821.56;4928894;29;20056;-80
2022/04/10 04:10:38;;;;;;;5.72;4.20;;;;;;;5.03;66.67;96822.66;4928196;29;20051;-81
2022/04/10 04:13:07;;;;;;;6.05;4.28;;;;;;;5.02;67.46;96825.38;4928104;29;20491;-81
2022/04/10 04:15:34;;;;;;;6.00;4.25;;;;;;;5.02;67.88;96827.97;4927469;29;20084;-81
2022/04/10 04:18:02;;;;;;;5.82;4.55;;;;;;;4.98;66.62;96829.19;4926941;29;20056;-80
2022/04/10 04:20:30;;;;;;;7.75;4.40;;;;;;;4.95;67.43;96830.31;4927415;29;20209;-80
2022/04/10 04:22:57;;;;;;;5.30;4.30;;;;;;;4.95;68.02;96831.09;4927097;29;20052;-81
2022/04/10 04:25:25;;;;;;;6.47;4.55;;;;;;;4.96;67.29;96839.69;4927609;29;20050;-80
2022/04/10 04:27:53;;;;;;;5.55;3.88;;;;;;;4.92;67.40;96846.91;4927018;29;20052;-81
2022/04/10 04:30:22;;;;;;;5.28;4.10;;;;;;;4.91;68.97;96849.63;4927154;29;20066;-81
2022/04/10 04:32:50;;;;;;;7.15;4.40;;;;;;;4.92;68.94;96852.09;4927039;29;20066;-81
2022/04/10 04:35:18;;;;;;;6.32;4.43;;;;;;;4.86;67.17;96852.63;4934288;29;20056;-80
2022/04/10 04:37:46;;;;;;;5.05;4.00;;;;;;;4.81;68.15;96854.84;4940039;29;20100;-80
2022/04/10 04:40:15;;;;;;;4.57;3.88;;;;;;;4.81;67.91;96861.75;4932855;29;20108;-81
2022/04/10 04:42:42;;;;;;;4.35;3.80;;;;;;;4.81;68.05;96856.59;4926894;29;20078;-81
2022/04/10 04:45:10;;;;;;;5.18;4.03;;;;;;;4.82;68.10;96871.97;4926184;29;20056;-82
2022/04/10 04:47:39;;;;;;;6.63;4.53;;;;;;;4.82;67.22;96868.56;4925833;29;20056;-80
2022/04/10 04:50:08;;;;;;;5.60;4.13;;;;;;;4.80;67.64;96865.31;4926041;29;20056;-81
2022/04/10 04:52:35;;;;;;;6.68;4.32;;;;;;;4.77;67.15;96869.00;4926272;29;20130;-81
2022/04/10 04:55:03;;;;;;;6.20;4.43;;;;;;;4.79;68.03;96872.25;4926806;29;20056;-81
2022/04/10 04:57:31;;;;;;;5.82;3.88;;;;;;;4.79;67.43;96872.25;4925694;29;20060;-81
2022/04/10 04:59:59;;;;;;;5.75;4.32;;;;;;;4.77;68.12;96875.91;4926097;29;20063;-81
2022/04/10 05:02:26;;;;;;;6.55;4.10;;;;;;;4.74;67.00;96889.91;4926194;29;20119;-81
2022/04/10 05:04:55;;;;;;;6.03;4.53;;;;;;;4.74;68.09;96892.50;4924746;29;20052;-81
2022/04/10 05:07:23;;;;;;;7.95;4.28;;;;;;;4.74;68.32;96895.94;4924887;29;20052;-81
2022/04/10 05:09:51;;;;;;;4.53;4.13;;;;;;;4.73;68.03;96894.28;4925461;29;20044;-80
2022/04/10 05:12:19;;;;;;;7.32;3.85;;;;;;;4.70;67.63;96893.72;4925691;29;20052;-80
2022/04/10 05:14:46;;;;;;;5.18;3.83;;;;;;;4.72;68.40;96902.16;4925246;29;20056;-80
2022/04/10 05:17:14;;;;;;;4.82;3.28;;;;;;;4.70;67.87;96904.91;4924589;29;20051;-81
2022/04/10 05:19:41;;;;;;;10.15;7.28;;;;;;;4.70;68.14;96909.22;4924375;29;20051;-80
2022/04/10 05:22:10;;;;;;;15.50;10.90;;;;;;;4.69;68.17;96915.38;4925861;29;20056;-80
2022/04/10 05:24:38;;;;;;;9.82;7.55;;;;;;;4.67;68.55;96919.84;4926209;29;20058;-80
2022/04/10 05:27:06;;;;;;;5.63;4.47;;;;;;;4.69;69.04;96923.13;4924936;29;20052;-81
2022/04/10 05:29:33;;;;;;;4.40;4.00;;;;;;;4.70;68.52;96933.31;4924888;29;20055;-81
2022/04/10 05:32:01;;;;;;;4.85;4.13;;;;;;;4.73;69.57;96934.81;4925079;29;20060;-81
2022/04/10 05:34:29;;;;;;;6.25;4.85;;;;;;;4.73;69.40;96934.81;4924905;29;20431;-81
2022/04/10 05:36:56;;;;;;;7.22;5.00;;;;;;;4.76;68.64;96939.69;4924520;29;20060;-80
2022/04/10 05:39:25;;;;;;;4.35;3.90;;;;;;;4.74;68.82;96941.59;4924980;29;20503;-81
2022/04/10 05:41:53;;;;;;;6.45;4.00;;;;;;;4.73;68.15;96945.16;4925185;29;20054;-80
2022/04/10 05:44:21;;;;;;;4.55;3.83;;;;;;;4.71;67.51;96947.06;4928088;29;20044;-79
2022/04/10 05:46:48;;;;;;;7.47;4.90;;;;;;;4.70;68.18;96946.25;4927718;29;20066;-81
2022/04/10 05:49:16;;;;;;;4.85;4.35;;;;;;;4.72;68.95;96956.44;4928078;29;20514;-80
2022/04/10 05:51:44;;;;;;;8.38;4.30;;;;;;;4.73;68.81;96955.50;4928702;29;20048;-81
2022/04/10 05:54:13;;;;;;;4.05;3.65;;;;;;;4.75;68.34;96958.75;4929202;29;20060;-80
2022/04/10 05:56:42;;;;;;;5.63;4.07;;;;;;;4.77;68.81;96959.44;4928423;29;20107;-81
2022/04/10 05:59:10;;;;;;;4.80;4.30;;;;;;;4.79;69.08;96960.13;4927910;29;20056;-81
2022/04/10 06:01:37;;;;;;;6.60;4.45;;;;;;;4.80;68.50;96966.91;4928870;29;20056;-81
2022/04/10 06:04:05;;;;;;;5.47;4.25;;;;;;;4.77;67.78;96963.78;4929078;29;20084;-81
2022/04/10 06:06:32;;;;;;;6.00;4.20;;;;;;;4.77;67.68;96972.38;4928518;29;20063;-81
2022/04/10 06:09:00;;;;;;;5.57;4.00;;;;;;;4.78;67.60;96979.16;4928899;29;20048;-81
2022/04/10 06:11:28;;;;;;;5.85;4.00;;;;;;;4.79;67.36;96979.97;4928192;29;20052;-81
2022/04/10 06:13:56;;;;;;;9.07;4.38;;;;;;;4.80;66.49;96987.59;4928863;29;20063;-81
2022/04/10 06:16:24;;;;;;;4.47;4.00;;;;;;;4.82;66.37;96985.69;4928309;29;20052;-81
2022/04/10 06:18:52;;;;;;;5.03;3.97;;;;;;;4.84;66.38;96973.44;4928292;29;20498;-81
2022/04/10 06:21:19;;;;;;;4.63;4.20;;;;;;;4.89;66.59;96984.19;4928572;29;20076;-81
2022/04/10 06:23:47;;;;;;;4.57;4.07;;;;;;;4.91;66.77;96984.88;4928813;29;20075;-80
2022/04/10 06:26:14;;;;;;;5.10;4.20;;;;;;;4.97;67.35;96985.28;4929529;29;20062;-80
2022/04/10 06:28:42;;;;;;;5.88;4.22;;;;;;;5.02;65.80;96990.84;4929042;29;20075;-80
2022/04/10 06:31:11;;;;;;;4.35;3.90;;;;;;;5.06;65.71;96989.63;4929166;29;20115;-80
2022/04/10 06:33:38;;;;;;;6.60;4.25;;;;;;;5.10;65.24;96996.16;4929084;29;20427;-81
2022/04/10 06:36:06;;;;;;;6.95;3.95;;;;;;;5.13;64.66;97006.22;4929761;29;20079;-80
2022/04/10 06:38:34;;;;;;;4.68;3.33;;;;;;;5.13;64.85;96999.28;4930311;29;20044;-81
2022/04/10 06:41:02;;;;;;;8.75;4.03;;;;;;;5.17;66.22;96994.66;4930046;29;20052;-81
2022/04/10 06:43:29;;;;;;;4.55;4.15;;;;;;;5.26;66.43;96995.59;4930688;29;20047;-80
2022/04/10 06:45:57;;;;;;;5.43;3.78;;;;;;;5.36;65.08;96999.78;4930427;29;20051;-81
2022/04/10 06:48:26;;;;;;;4.68;4.28;;;;;;;5.42;65.21;97000.19;4931103;29;20080;-81
2022/04/10 06:50:53;;;;;;;6.05;3.70;;;;;;;5.47;64.15;97000.59;4931902;29;20135;-81
2022/04/10 06:53:21;;;;;;;5.72;3.95;;;;;;;5.50;64.71;97005.47;4931953;29;20044;-80
2022/04/10 06:55:49;;;;;;;4.22;3.70;;;;;;;5.54;64.72;97007.66;4931405;29;20052;-79
2022/04/10 06:58:19;;;;;;;5.53;3.83;;;;;;;5.62;64.76;97006.97;4932794;29;20055;-81
2022/04/10 07:00:47;;;;;;;6.53;4.53;;;;;;;5.65;64.21;97000.69;4932865;29;20089;-81
2022/04/10 07:03:15;;;;;;;5.72;4.22;;;;;;;5.64;64.62;96997.28;4934015;29;20052;-81
2022/04/10 07:05:44;;;;;;;5.60;4.35;;;;;;;5.64;65.54;97002.47;4933219;29;20055;-81
2022/04/10 07:08:12;;;;;;;7.03;4.22;;;;;;;5.65;64.62;97008.44;4933598;29;20059;-81
2022/04/10 07:10:40;;;;;;;4.82;4.28;;;;;;;5.64;64.29;97010.22;4934777;29;20052;-81
2022/04/10 07:13:08;;;;;;;5.30;4.03;;;;;;;5.64;64.41;97010.22;4934527;29;20517;-81
2022/04/10 07:15:35;;;;;;;6.78;4.25;;;;;;;5.66;64.28;97012.66;4934384;29;20058;-81
2022/04/10 07:18:04;;;;;;;6.32;4.30;;;;;;;5.63;63.49;97016.34;4933263;29;20139;-80
2022/04/10 07:20:32;;;;;;;5.95;4.10;;;;;;;5.61;63.43;97020.03;4934012;29;20116;-81
2022/04/10 07:25:46;;;;;;;4.32;3.92;;;;;;;5.63;63.99;97025.88;4940848;29;20050;-79
2022/04/10 07:28:14;;;;;;;4.45;4.05;;;;;;;5.71;63.83;97019.06;4941868;29;20107;-81
2022/04/10 07:30:41;;;;;;;5.35;3.55;;;;;;;5.83;63.60;97021.47;4936228;29;20108;-81
2022/04/10 07:33:09;;;;;;;4.55;3.70;;;;;;;5.94;63.82;97018.69;4934718;29;20052;-81
2022/04/10 07:35:40;;;;;;;7.72;4.32;;;;;;;6.06;63.82;97024.56;4934471;29;20576;-81
2022/04/10 07:38:10;;;;;;;4.70;3.25;;;;;;;6.12;62.37;97019.63;4934940;29;20052;-81
2022/04/10 07:40:39;;;;;;;4.50;3.60;;;;;;;6.23;62.09;97020.38;4934969;29;20090;-81
2022/04/10 07:43:07;;;;;;;5.80;3.50;;;;;;;6.32;61.42;97024.69;4935737;29;20058;-81
2022/04/10 07:48:20;;;;;;;7.97;5.53;;;;;;;6.52;61.08;97033.19;4936768;29;20140;-81
2022/04/10 07:50:48;;;;;;;8.07;4.20;;;;;;;6.63;63.17;97032.16;4936832;29;20048;-81
2022/04/10 07:53:17;;;;;;;4.13;3.72;;;;;;;6.68;61.35;97037.72;4936931;29;20116;-81
2022/04/10 07:55:45;;;;;;;5.82;4.07;;;;;;;6.68;61.37;97038.53;4937282;29;20115;-80
2022/04/10 07:58:12;;;;;;;4.22;3.50;;;;;;;6.72;60.65;97036.47;4937021;29;20119;-81
2022/04/10 08:00:40;;;;;;;3.70;3.22;;;;;;;6.79;61.80;97029.72;4936958;29;20052;-81
2022/04/10 08:03:08;;;;;;;4.75;3.30;;;;;;;6.94;60.81;97043.81;4938078;29;20055;-81
2022/04/10 08:05:36;;;;;;;3.70;3.30;;;;;;;7.08;58.53;97036.47;4937265;29;20062;-81
2022/04/10 08:08:05;;;;;;;2.92;2.60;;;;;;;7.11;56.93;97038.78;4937979;29;20116;-81
2022/04/10 08:10:34;;;;;;;2.78;2.38;;;;;;;7.12;56.18;97045.59;4938433;29;20044;-81
2022/04/10 08:13:01;;;;;;;3.20;2.85;;;;;;;7.17;57.38;97040.75;4938994;29;20123;-81
2022/04/10 08:15:30;;;;;;;4.63;3.13;;;;;;;7.26;57.08;97041.66;4938360;29;20084;-81
2022/04/10 08:17:57;;;;;;;3.45;2.97;;;;;;;7.36;57.61;97050.97;4938984;29;20060;-81
2022/04/10 08:20:26;;;;;;;5.15;2.90;;;;;;;7.50;58.14;97054.84;4938778;29;20048;-81
2022/04/10 08:22:58;;;;;;;4.97;2.90;;;;;;;7.54;56.33;97055.31;4939416;29;20066;-81
2022/04/10 08:25:27;;;;;;;4.25;3.13;;;;;;;7.56;56.53;97062.00;4939148;29;20040;-81
2022/04/10 08:27:56;;;;;;;4.78;2.92;;;;;;;7.61;56.38;97057.19;4939009;29;20059;-81
2022/04/10 08:30:24;;;;;;;4.10;2.83;;;;;;;7.63;55.37;97055.25;4939557;29;20051;-81
2022/04/10 08:32:52;;;;;;;3.63;3.15;;;;;;;7.66;55.60;97054.13;4938752;29;20056;-84
2022/04/10 08:35:20;;;;;;;6.75;3.10;;;;;;;7.72;56.54;97053.53;4938052;29;20067;-81
2022/04/10 08:37:48;;;;;;;5.53;2.92;;;;;;;7.78;57.55;97058.13;4940062;29;20043;-81
2022/04/10 08:40:16;;;;;;;8.35;3.60;;;;;;;7.85;58.18;97047.94;4939740;29;20043;-81
2022/04/10 08:42:44;;;;;;;5.40;3.35;;;;;;;7.95;58.74;97060.78;4939540;29;20052;-81
2022/04/10 08:45:14;;;;;;;5.47;2.85;;;;;;;8.03;56.57;97058.25;4939884;29;20052;-81
2022/04/10 08:47:42;;;;;;;3.45;2.83;;;;;;;8.06;56.29;97063.13;4939690;29;20063;-81
2022/04/10 08:50:11;;;;;;;5.53;2.30;;;;;;;8.05;54.82;97069.31;4940059;29;20134;-81
2022/04/10 08:52:39;;;;;;;3.50;2.03;;;;;;;7.97;54.48;97067.47;4940235;29;20032;-81
2022/04/10 08:55:08;;;;;;;3.65;2.00;;;;;;;7.90;55.10;97070.84;4939866;29;20036;-81
2022/04/10 08:57:35;;;;;;;3.60;1.90;;;;;;;7.84;53.33;97073.06;4939423;29;20056;-81
2022/04/10 09:00:04;;;;;;;3.42;1.90;;;;;;;7.80;54.51;97071.72;4939784;29;20044;-81
2022/04/10 09:02:46;;;;;;;2.88;1.63;;;;;;;7.75;53.21;97079.19;4939823;29;20078;-81
2022/04/10 09:05:17;;;;;;;4.27;2.13;;;;;;;7.79;54.41;97077.91;4939847;29;20069;-81
2022/04/10 09:08:07;;;;;;;3.20;1.77;;;;;;;7.78;52.28;97086.69;4939705;29;20073;-82
2022/04/10 09:10:53;;;;;;;1.90;1.75;;;;;;;7.77;52.84;97085.03;4939731;29;20037;-81
2022/04/10 09:13:26;;;;;;;3.78;1.55;;;;;;;7.73;50.28;97081.09;4940228;29;20060;-81
2022/04/10 09:16:02;;;;;;;2.20;1.92;;;;;;;7.67;52.28;97081.72;4939255;29;20032;-81
2022/04/10 09:18:45;;;;;;;4.03;2.08;;;;;;;7.62;49.00;97084.75;4943574;29;20056;-81
2022/04/10 09:21:16;;;;;;;4.07;2.08;;;;;;;7.56;52.92;97079.34;4942971;29;20036;-81
2022/04/10 09:23:52;;;;;;;4.47;2.20;;;;;;;7.52;52.46;97075.44;4943045;29;20048;-81
2022/04/10 09:26:21;;;;;;;2.95;1.95;;;;;;;7.52;51.46;97081.47;4943049;29;20063;-81
2022/04/10 09:28:51;;;;;;;3.38;2.13;;;;;;;7.54;51.77;97076.94;4943049;29;20059;-81
2022/04/10 09:31:30;;;;;;;4.28;2.25;;;;;;;7.54;50.59;97081.28;4943037;29;20032;-82
2022/04/10 09:34:01;;;;;;;2.60;2.40;;;;;;;7.52;52.98;97078.88;4943061;29;20084;-81
2022/04/10 09:36:31;;;;;;;3.13;2.13;;;;;;;7.46;52.22;97074.28;4942909;29;20056;-81
2022/04/10 09:38:59;;;;;;;2.88;2.50;;;;;;;7.42;53.54;97088.50;4943257;29;20063;-81
2022/04/10 09:41:27;;;;;;;3.85;2.45;;;;;;;7.38;53.12;97084.56;4982735;23;20044;-79
2022/04/10 09:44:00;;;;;;;2.33;1.77;;;;;;;7.38;52.76;97090.56;4949129;29;20055;-79
2022/04/10 09:46:31;;;;;;;5.03;2.47;;;;;;;7.40;53.23;97072.28;4950195;29;20489;-82
2022/04/10 09:49:06;;;;;;;4.40;1.98;;;;;;;7.42;53.50;97084.13;4947335;29;20061;-83
2022/04/10 09:51:35;;;;;;;5.15;2.25;;;;;;;7.47;52.50;97081.06;4936021;29;20080;-82
2022/04/10 09:54:06;;;;;;;4.18;1.90;;;;;;;7.52;51.67;97078.03;4928402;29;20048;-82
2022/04/10 09:56:38;;;;;;;3.55;1.98;;;;;;;7.65;51.54;97075.84;4925363;29;20119;-82
2022/04/10 09:59:09;;;;;;;3.13;2.30;;;;;;;8.02;52.42;97075.63;4926558;29;20059;-82
2022/04/10 10:01:38;;;;;;;3.30;2.38;;;;;;;8.41;50.85;97063.97;4926339;29;20498;-82
2022/04/10 10:04:11;;;;;;;3.38;2.03;;;;;;;8.61;50.90;97078.34;4925310;29;20498;-82
2022/04/10 10:06:41;;;;;;;4.53;2.25;;;;;;;8.55;51.15;97071.19;4925132;29;20558;-82
2022/04/10 10:09:11;;;;;;;3.10;2.08;;;;;;;8.47;51.35;97076.34;4924521;29;20056;-84
2022/04/10 10:11:42;;;;;;;2.58;2.10;;;;;;;8.42;49.53;97073.41;4927346;29;20062;-80
2022/04/10 10:14:12;;;;;;;5.80;3.22;;;;;;;8.43;50.13;97082.81;4924658;29;20052;-82
2022/04/10 10:16:42;;;;;;;3.67;2.70;;;;;;;8.41;48.63;97071.78;4925167;29;20051;-83
2022/04/10 10:19:19;;;;;;;3.90;2.83;;;;;;;8.46;48.16;97074.69;4927373;29;20052;-82
2022/04/10 10:21:49;;;;;;;6.80;3.15;;;;;;;8.54;49.61;97082.53;4926181;29;20079;-82
2022/04/10 10:24:21;;;;;;;3.75;2.75;;;;;;;8.53;50.75;97083.53;4926741;29;20067;-82
2022/04/10 10:27:04;;;;;;;3.58;2.45;;;;;;;8.43;48.43;97088.03;4930011;29;20052;-82
2022/04/10 10:30:04;;;;;;;3.35;2.60;;;;;;;8.33;50.19;97082.09;4925601;29;20058;-82
2022/04/10 10:32:43;;;;;;;5.57;3.38;;;;;;;8.25;51.14;97081.09;4927360;29;20143;-82
2022/04/10 10:35:16;;;;;;;3.53;2.70;;;;;;;8.15;49.77;97085.56;4929446;29;20072;-83
2022/04/10 10:37:56;;;;;;;4.15;2.63;;;;;;;8.10;49.84;97085.25;4913598;29;20225;-82
2022/04/10 10:40:26;;;;;;;2.85;2.38;;;;;;;8.08;49.53;97073.38;4926885;29;20052;-82
2022/04/10 10:43:00;;;;;;;4.70;2.85;;;;;;;8.04;50.85;97068.47;4925002;29;20116;-82
2022/04/10 10:45:38;;;;;;;4.88;3.15;;;;;;;8.03;49.67;97079.03;4925296;29;20072;-82
2022/04/10 10:48:34;;;;;;;3.20;2.90;;;;;;;7.98;51.85;97074.31;4926165;29;20148;-82
2022/04/10 10:51:41;;;;;;;5.72;2.97;;;;;;;7.99;53.57;97082.91;4925644;29;20048;-82
2022/04/10 10:54:13;;;;;;;6.85;3.03;;;;;;;7.98;51.49;97084.69;4927122;29;20127;-83
2022/04/10 10:56:46;;;;;;;6.50;3.92;;;;;;;7.97;52.73;97079.63;4925286;29;20059;-83
2022/04/10 10:59:26;;;;;;;;;;;;;;;7.99;52.42;97088.09;4925673;29;20066;-83
2022/04/10 11:02:02;;;;;;;5.68;3.50;;;;;;;7.94;49.84;97082.56;4928114;29;20018;-82
2022/04/10 11:04:37;;;;;;;5.88;4.05;;;;;;;7.91;51.20;97082.84;4925520;29;20135;-82
2022/04/10 11:07:15;;;;;;;5.72;2.95;;;;;;;7.89;49.44;97080.38;4928275;29;20051;-82
2022/04/10 11:09:59;;;;;;;4.13;2.53;;;;;;;7.90;51.94;97076.84;4924690;29;20173;-82
2022/04/10 11:12:34;;;;;;;4.18;2.65;;;;;;;7.94;49.71;97082.56;4926203;29;20060;-82
2022/04/10 11:15:18;;;;;;;6.15;2.53;;;;;;;7.98;51.10;97076.91;4925862;29;20120;-82
2022/04/10 11:17:49;;;;;;;3.70;2.67;;;;;;;8.05;50.74;97079.69;4925346;29;20075;-82
2022/04/10 11:20:21;;;;;;;3.63;2.27;;;;;;;8.12;50.10;97082.50;4924898;29;20088;-82
2022/04/10 11:23:07;;;;;;;2.97;2.17;;;;;;;8.24;52.41;97076.03;4926381;29;20052;-83
2022/04/10 11:25:49;;;;;;;5.03;2.53;;;;;;;8.39;49.45;97073.69;4934113;29;20060;-82
2022/04/10 11:28:26;;;;;;;4.03;2.67;;;;;;;8.47;52.44;97080.75;4934837;29;20042;-82
2022/04/10 11:30:57;;;;;;;3.20;2.33;;;;;;;8.57;51.47;97077.03;4928551;29;20051;-83
2022/04/10 11:33:49;;;;;;;5.05;2.58;;;;;;;8.71;50.37;97080.00;4931857;29;20047;-82
2022/04/10 11:36:35;;;;;;;6.47;2.22;;;;;;;8.78;49.72;97075.81;4933493;29;20071;-82
2022/04/10 22:00:28;;;;;;;6.93;3.60;;;;;;;4.41;61.65;97074.56;4952012;29;20051;-82
2022/04/10 22:10:04;;;;;;;5.78;3.67;;;;;;;4.31;62.83;97072.78;4934736;29;20056;-82
2022/04/10 22:16:23;;;;;;;4.65;3.65;;;;;;;4.31;62.25;97069.38;4925369;29;20103;-82
2022/04/10 22:19:27;;;;;;;4.43;3.45;;;;;;;4.32;61.81;97071.81;4932002;29;20083;-82
2022/04/10 22:31:06;;;;;;;5.57;3.55;;;;;;;4.22;62.33;97083.88;5564236;23;20071;-84
2022/04/10 22:33:37;;;;;;;4.65;3.53;;;;;;;4.24;62.26;97087.16;4962022;28;20071;-84
2022/04/10 22:36:08;;;;;;;9.98;3.95;;;;;;;4.22;62.18;97096.81;4961531;28;20064;-84
2022/04/10 22:38:38;;;;;;;6.13;3.85;;;;;;;4.23;62.39;97087.28;4961423;28;20040;-83
2022/04/10 22:41:06;;;;;;;6.07;3.83;;;;;;;4.26;63.57;97089.59;4952050;28;20076;-83